sensor_id;sensor_type;location;lat;lon;timestamp;temperature;humidity
69393;SHT31;56582;44.624;20.378;2023-06-22T00:00:55;23.94;70.47
69393;SHT31;56582;44.624;20.378;2023-06-22T00:03:22;24.01;70.27
69393;SHT31;56582;44.624;20.378;2023-06-22T00:05:48;23.99;70.34
69393;SHT31;56582;44.624;20.378;2023-06-22T00:08:15;23.97;70.88
69393;SHT31;56582;44.624;20.378;2023-06-22T00:10:40;23.97;71.11
69393;SHT31;56582;44.624;20.378;2023-06-22T00:13:07;23.84;71.22
69393;SHT31;56582;44.624;20.378;2023-06-22T00:15:33;23.90;70.96
69393;SHT31;56582;44.624;20.378;2023-06-22T00:17:58;23.77;72.05
69393;SHT31;56582;44.624;20.378;2023-06-22T00:20:26;23.82;71.54
69393;SHT31;56582;44.624;20.378;2023-06-22T00:22:58;23.80;71.65
69393;SHT31;56582;44.624;20.378;2023-06-22T00:25:24;23.83;71.34
69393;SHT31;56582;44.624;20.378;2023-06-22T00:27:50;23.83;71.59
69393;SHT31;56582;44.624;20.378;2023-06-22T00:30:16;23.77;71.45
69393;SHT31;56582;44.624;20.378;2023-06-22T00:32:43;23.92;71.43
69393;SHT31;56582;44.624;20.378;2023-06-22T00:35:09;23.93;70.94
69393;SHT31;56582;44.624;20.378;2023-06-22T00:37:35;24.00;70.72
69393;SHT31;56582;44.624;20.378;2023-06-22T00:40:01;24.01;71.29
69393;SHT31;56582;44.624;20.378;2023-06-22T00:42:27;23.94;71.29
69393;SHT31;56582;44.624;20.378;2023-06-22T00:44:52;23.96;71.40
69393;SHT31;56582;44.624;20.378;2023-06-22T00:47:18;23.77;72.09
69393;SHT31;56582;44.624;20.378;2023-06-22T00:49:44;23.83;71.93
69393;SHT31;56582;44.624;20.378;2023-06-22T00:52:12;23.76;72.62
69393;SHT31;56582;44.624;20.378;2023-06-22T00:54:47;23.70;72.80
69393;SHT31;56582;44.624;20.378;2023-06-22T00:57:14;23.72;73.18
69393;SHT31;56582;44.624;20.378;2023-06-22T00:59:44;23.59;73.75
69393;SHT31;56582;44.624;20.378;2023-06-22T01:02:09;23.52;73.86
69393;SHT31;56582;44.624;20.378;2023-06-22T01:04:37;23.51;74.24
69393;SHT31;56582;44.624;20.378;2023-06-22T01:16:19;23.49;74.92
69393;SHT31;56582;44.624;20.378;2023-06-22T01:18:47;23.51;75.22
69393;SHT31;56582;44.624;20.378;2023-06-22T01:21:16;23.51;75.04
69393;SHT31;56582;44.624;20.378;2023-06-22T01:29:31;23.53;75.25
69393;SHT31;56582;44.624;20.378;2023-06-22T01:31:59;23.61;75.11
69393;SHT31;56582;44.624;20.378;2023-06-22T01:34:25;23.63;74.90
69393;SHT31;56582;44.624;20.378;2023-06-22T01:36:51;23.55;75.29
69393;SHT31;56582;44.624;20.378;2023-06-22T01:39:17;23.53;75.15
69393;SHT31;56582;44.624;20.378;2023-06-22T01:41:43;23.58;74.96
69393;SHT31;56582;44.624;20.378;2023-06-22T01:44:10;23.53;75.13
69393;SHT31;56582;44.624;20.378;2023-06-22T01:46:37;23.52;75.25
69393;SHT31;56582;44.624;20.378;2023-06-22T01:49:04;23.53;75.29
69393;SHT31;56582;44.624;20.378;2023-06-22T01:51:30;23.52;75.62
69393;SHT31;56582;44.624;20.378;2023-06-22T01:53:56;23.49;75.50
69393;SHT31;56582;44.624;20.378;2023-06-22T01:56:21;23.48;75.61
69393;SHT31;56582;44.624;20.378;2023-06-22T01:58:50;23.51;75.57
69393;SHT31;56582;44.624;20.378;2023-06-22T02:01:27;23.53;75.65
69393;SHT31;56582;44.624;20.378;2023-06-22T02:04:11;23.52;75.73
69393;SHT31;56582;44.624;20.378;2023-06-22T02:06:38;23.51;75.63
69393;SHT31;56582;44.624;20.378;2023-06-22T02:09:13;23.35;76.08
69393;SHT31;56582;44.624;20.378;2023-06-22T02:11:41;23.35;76.26
69393;SHT31;56582;44.624;20.378;2023-06-22T02:14:08;23.26;76.61
69393;SHT31;56582;44.624;20.378;2023-06-22T02:16:35;23.25;76.61
69393;SHT31;56582;44.624;20.378;2023-06-22T02:19:02;23.15;76.98
69393;SHT31;56582;44.624;20.378;2023-06-22T02:21:32;23.11;77.09
69393;SHT31;56582;44.624;20.378;2023-06-22T02:23:58;23.01;77.66
69393;SHT31;56582;44.624;20.378;2023-06-22T02:26:25;22.98;77.69
69393;SHT31;56582;44.624;20.378;2023-06-22T02:28:50;22.95;77.55
69393;SHT31;56582;44.624;20.378;2023-06-22T02:31:16;22.98;77.32
69393;SHT31;56582;44.624;20.378;2023-06-22T02:33:42;22.98;77.43
69393;SHT31;56582;44.624;20.378;2023-06-22T02:36:09;23.04;77.17
69393;SHT31;56582;44.624;20.378;2023-06-22T02:38:35;22.98;77.29
69393;SHT31;56582;44.624;20.378;2023-06-22T02:41:02;23.00;77.14
69393;SHT31;56582;44.624;20.378;2023-06-22T02:43:28;23.00;77.13
69393;SHT31;56582;44.624;20.378;2023-06-22T02:45:53;22.94;77.31
69393;SHT31;56582;44.624;20.378;2023-06-22T02:48:19;22.98;77.34
69393;SHT31;56582;44.624;20.378;2023-06-22T02:50:44;22.95;77.36
69393;SHT31;56582;44.624;20.378;2023-06-22T02:53:10;22.98;77.55
69393;SHT31;56582;44.624;20.378;2023-06-22T02:55:35;23.01;77.81
69393;SHT31;56582;44.624;20.378;2023-06-22T02:58:00;22.94;78.16
69393;SHT31;56582;44.624;20.378;2023-06-22T03:00:30;22.91;78.60
69393;SHT31;56582;44.624;20.378;2023-06-22T03:02:56;22.93;78.13
69393;SHT31;56582;44.624;20.378;2023-06-22T03:05:22;22.95;78.18
69393;SHT31;56582;44.624;20.378;2023-06-22T03:07:48;22.95;78.29
69393;SHT31;56582;44.624;20.378;2023-06-22T03:10:14;22.98;78.54
69393;SHT31;56582;44.624;20.378;2023-06-22T03:12:41;23.01;78.55
69393;SHT31;56582;44.624;20.378;2023-06-22T03:15:09;23.00;78.73
69393;SHT31;56582;44.624;20.378;2023-06-22T03:17:36;23.05;79.23
69393;SHT31;56582;44.624;20.378;2023-06-22T03:20:02;23.03;79.09
69393;SHT31;56582;44.624;20.378;2023-06-22T03:22:41;23.00;78.87
69393;SHT31;56582;44.624;20.378;2023-06-22T03:25:08;23.07;78.88
69393;SHT31;56582;44.624;20.378;2023-06-22T03:27:39;23.08;78.96
69393;SHT31;56582;44.624;20.378;2023-06-22T03:30:06;23.16;79.17
69393;SHT31;56582;44.624;20.378;2023-06-22T03:32:32;23.16;79.20
69393;SHT31;56582;44.624;20.378;2023-06-22T03:34:57;23.22;79.27
69393;SHT31;56582;44.624;20.378;2023-06-22T03:37:24;23.26;79.15
69393;SHT31;56582;44.624;20.378;2023-06-22T03:39:51;23.32;79.05
69393;SHT31;56582;44.624;20.378;2023-06-22T03:42:16;23.43;78.72
69393;SHT31;56582;44.624;20.378;2023-06-22T03:44:41;23.25;79.44
69393;SHT31;56582;44.624;20.378;2023-06-22T03:47:07;23.48;77.57
69393;SHT31;56582;44.624;20.378;2023-06-22T03:49:34;23.59;80.50
69393;SHT31;56582;44.624;20.378;2023-06-22T03:52:00;23.65;76.69
69393;SHT31;56582;44.624;20.378;2023-06-22T03:54:27;23.70;78.18
69393;SHT31;56582;44.624;20.378;2023-06-22T03:56:53;23.70;78.49
69393;SHT31;56582;44.624;20.378;2023-06-22T03:59:18;23.82;79.96
69393;SHT31;56582;44.624;20.378;2023-06-22T04:01:44;23.84;76.09
69393;SHT31;56582;44.624;20.378;2023-06-22T04:04:10;23.80;75.14
69393;SHT31;56582;44.624;20.378;2023-06-22T04:06:35;23.77;75.60
69393;SHT31;56582;44.624;20.378;2023-06-22T04:09:00;23.67;74.06
69393;SHT31;56582;44.624;20.378;2023-06-22T04:11:26;23.66;74.51
69393;SHT31;56582;44.624;20.378;2023-06-22T04:13:51;23.62;75.32
69393;SHT31;56582;44.624;20.378;2023-06-22T04:16:17;23.48;74.98
69393;SHT31;56582;44.624;20.378;2023-06-22T04:18:42;23.51;76.10
69393;SHT31;56582;44.624;20.378;2023-06-22T04:21:08;23.38;75.39
69393;SHT31;56582;44.624;20.378;2023-06-22T04:23:33;23.48;75.61
69393;SHT31;56582;44.624;20.378;2023-06-22T04:25:59;23.48;75.31
69393;SHT31;56582;44.624;20.378;2023-06-22T04:28:24;23.59;75.17
69393;SHT31;56582;44.624;20.378;2023-06-22T04:30:50;23.58;75.68
69393;SHT31;56582;44.624;20.378;2023-06-22T04:33:16;23.65;75.58
69393;SHT31;56582;44.624;20.378;2023-06-22T04:35:44;23.67;74.91
69393;SHT31;56582;44.624;20.378;2023-06-22T04:38:12;23.67;74.51
69393;SHT31;56582;44.624;20.378;2023-06-22T04:40:38;23.63;73.06
69393;SHT31;56582;44.624;20.378;2023-06-22T04:43:04;23.74;74.55
69393;SHT31;56582;44.624;20.378;2023-06-22T04:45:31;23.70;74.10
69393;SHT31;56582;44.624;20.378;2023-06-22T04:47:57;23.79;73.45
69393;SHT31;56582;44.624;20.378;2023-06-22T04:50:22;23.87;72.81
69393;SHT31;56582;44.624;20.378;2023-06-22T04:52:49;24.01;73.89
69393;SHT31;56582;44.624;20.378;2023-06-22T04:55:15;24.28;73.00
69393;SHT31;56582;44.624;20.378;2023-06-22T04:57:45;24.44;73.02
69393;SHT31;56582;44.624;20.378;2023-06-22T05:00:18;24.61;73.53
69393;SHT31;56582;44.624;20.378;2023-06-22T05:02:45;24.73;72.82
69393;SHT31;56582;44.624;20.378;2023-06-22T05:05:12;24.83;72.47
69393;SHT31;56582;44.624;20.378;2023-06-22T05:07:42;24.86;72.89
69393;SHT31;56582;44.624;20.378;2023-06-22T05:10:09;24.92;74.67
69393;SHT31;56582;44.624;20.378;2023-06-22T05:12:36;24.95;73.85
69393;SHT31;56582;44.624;20.378;2023-06-22T05:15:01;24.90;74.44
69393;SHT31;56582;44.624;20.378;2023-06-22T05:17:27;24.98;75.24
69393;SHT31;56582;44.624;20.378;2023-06-22T05:19:53;24.99;74.89
69393;SHT31;56582;44.624;20.378;2023-06-22T05:22:20;25.02;75.54
69393;SHT31;56582;44.624;20.378;2023-06-22T05:24:46;25.16;75.16
69393;SHT31;56582;44.624;20.378;2023-06-22T05:27:11;25.31;77.03
69393;SHT31;56582;44.624;20.378;2023-06-22T05:29:37;25.34;76.50
69393;SHT31;56582;44.624;20.378;2023-06-22T05:32:03;25.40;76.57
69393;SHT31;56582;44.624;20.378;2023-06-22T05:34:29;25.41;75.63
69393;SHT31;56582;44.624;20.378;2023-06-22T05:36:54;25.53;75.66
69393;SHT31;56582;44.624;20.378;2023-06-22T05:39:19;25.56;76.01
69393;SHT31;56582;44.624;20.378;2023-06-22T05:41:45;25.41;76.04
69393;SHT31;56582;44.624;20.378;2023-06-22T05:44:11;25.46;76.67
69393;SHT31;56582;44.624;20.378;2023-06-22T05:46:40;25.57;77.25
69393;SHT31;56582;44.624;20.378;2023-06-22T05:49:05;25.70;76.39
69393;SHT31;56582;44.624;20.378;2023-06-22T05:51:31;25.88;73.82
69393;SHT31;56582;44.624;20.378;2023-06-22T05:53:56;25.95;72.46
69393;SHT31;56582;44.624;20.378;2023-06-22T05:56:22;26.04;73.85
69393;SHT31;56582;44.624;20.378;2023-06-22T05:58:47;26.33;73.14
69393;SHT31;56582;44.624;20.378;2023-06-22T06:01:12;26.53;72.19
69393;SHT31;56582;44.624;20.378;2023-06-22T06:03:40;26.79;71.92
69393;SHT31;56582;44.624;20.378;2023-06-22T06:06:07;26.95;72.50
69393;SHT31;56582;44.624;20.378;2023-06-22T06:08:32;27.14;72.52
69393;SHT31;56582;44.624;20.378;2023-06-22T06:10:58;27.31;72.55
69393;SHT31;56582;44.624;20.378;2023-06-22T06:13:24;27.56;72.54
69393;SHT31;56582;44.624;20.378;2023-06-22T06:15:49;27.71;73.30
69393;SHT31;56582;44.624;20.378;2023-06-22T06:18:17;27.93;70.16
69393;SHT31;56582;44.624;20.378;2023-06-22T06:20:42;27.97;69.67
69393;SHT31;56582;44.624;20.378;2023-06-22T06:23:08;27.99;66.83
69393;SHT31;56582;44.624;20.378;2023-06-22T06:25:34;28.11;69.26
69393;SHT31;56582;44.624;20.378;2023-06-22T06:27:59;28.37;69.57
69393;SHT31;56582;44.624;20.378;2023-06-22T06:30:25;28.47;69.32
69393;SHT31;56582;44.624;20.378;2023-06-22T06:32:50;28.61;71.10
69393;SHT31;56582;44.624;20.378;2023-06-22T06:35:16;28.71;71.06
69393;SHT31;56582;44.624;20.378;2023-06-22T06:37:44;28.86;69.58
69393;SHT31;56582;44.624;20.378;2023-06-22T06:40:12;28.99;65.57
69393;SHT31;56582;44.624;20.378;2023-06-22T06:42:38;29.07;66.23
69393;SHT31;56582;44.624;20.378;2023-06-22T06:45:06;29.12;66.21
69393;SHT31;56582;44.624;20.378;2023-06-22T06:47:31;29.17;67.16
69393;SHT31;56582;44.624;20.378;2023-06-22T06:49:57;29.26;68.70
69393;SHT31;56582;44.624;20.378;2023-06-22T06:52:22;29.33;69.46
69393;SHT31;56582;44.624;20.378;2023-06-22T06:54:48;29.49;65.15
69393;SHT31;56582;44.624;20.378;2023-06-22T06:57:14;29.73;66.56
69393;SHT31;56582;44.624;20.378;2023-06-22T06:59:40;29.78;64.97
69393;SHT31;56582;44.624;20.378;2023-06-22T07:02:06;29.84;65.01
69393;SHT31;56582;44.624;20.378;2023-06-22T07:04:32;30.00;65.73
69393;SHT31;56582;44.624;20.378;2023-06-22T07:07:00;29.94;65.56
69393;SHT31;56582;44.624;20.378;2023-06-22T07:09:26;30.11;65.35
69393;SHT31;56582;44.624;20.378;2023-06-22T07:11:51;30.01;62.40
69393;SHT31;56582;44.624;20.378;2023-06-22T07:14:17;30.04;63.20
69393;SHT31;56582;44.624;20.378;2023-06-22T07:16:42;30.21;62.90
69393;SHT31;56582;44.624;20.378;2023-06-22T07:19:07;30.18;60.74
69393;SHT31;56582;44.624;20.378;2023-06-22T07:21:33;30.21;62.17
69393;SHT31;56582;44.624;20.378;2023-06-22T07:23:58;30.26;61.36
69393;SHT31;56582;44.624;20.378;2023-06-22T07:26:24;30.22;60.39
69393;SHT31;56582;44.624;20.378;2023-06-22T07:28:49;30.25;61.94
69393;SHT31;56582;44.624;20.378;2023-06-22T07:31:16;30.39;61.19
69393;SHT31;56582;44.624;20.378;2023-06-22T07:33:41;30.53;61.80
69393;SHT31;56582;44.624;20.378;2023-06-22T07:36:06;30.55;58.62
69393;SHT31;56582;44.624;20.378;2023-06-22T07:38:33;30.69;60.96
69393;SHT31;56582;44.624;20.378;2023-06-22T07:41:00;30.63;58.56
69393;SHT31;56582;44.624;20.378;2023-06-22T07:43:26;30.76;58.69
69393;SHT31;56582;44.624;20.378;2023-06-22T07:45:54;30.81;60.15
69393;SHT31;56582;44.624;20.378;2023-06-22T07:48:21;30.92;61.25
69393;SHT31;56582;44.624;20.378;2023-06-22T07:50:47;31.00;61.62
69393;SHT31;56582;44.624;20.378;2023-06-22T07:53:13;31.02;63.39
69393;SHT31;56582;44.624;20.378;2023-06-22T07:55:39;31.18;63.04
69393;SHT31;56582;44.624;20.378;2023-06-22T07:58:04;31.17;61.33
69393;SHT31;56582;44.624;20.378;2023-06-22T08:00:30;31.21;63.50
69393;SHT31;56582;44.624;20.378;2023-06-22T08:02:56;31.31;62.67
69393;SHT31;56582;44.624;20.378;2023-06-22T08:05:22;31.46;60.88
69393;SHT31;56582;44.624;20.378;2023-06-22T08:07:47;31.31;61.05
69393;SHT31;56582;44.624;20.378;2023-06-22T08:10:13;31.38;61.76
69393;SHT31;56582;44.624;20.378;2023-06-22T08:12:39;31.53;60.65
69393;SHT31;56582;44.624;20.378;2023-06-22T08:15:06;31.63;63.41
69393;SHT31;56582;44.624;20.378;2023-06-22T08:17:32;31.53;59.99
69393;SHT31;56582;44.624;20.378;2023-06-22T08:19:58;31.69;61.14
69393;SHT31;56582;44.624;20.378;2023-06-22T08:22:23;31.82;62.83
69393;SHT31;56582;44.624;20.378;2023-06-22T08:24:49;31.75;56.28
69393;SHT31;56582;44.624;20.378;2023-06-22T08:27:16;31.62;56.57
69393;SHT31;56582;44.624;20.378;2023-06-22T08:29:43;31.65;57.91
69393;SHT31;56582;44.624;20.378;2023-06-22T08:32:11;31.89;61.84
69393;SHT31;56582;44.624;20.378;2023-06-22T08:34:36;31.97;58.09
69393;SHT31;56582;44.624;20.378;2023-06-22T08:37:02;32.21;60.72
69393;SHT31;56582;44.624;20.378;2023-06-22T08:39:32;32.17;60.22
69393;SHT31;56582;44.624;20.378;2023-06-22T08:41:57;32.09;59.22
69393;SHT31;56582;44.624;20.378;2023-06-22T08:44:22;32.00;55.84
69393;SHT31;56582;44.624;20.378;2023-06-22T08:46:48;31.98;60.44
69393;SHT31;56582;44.624;20.378;2023-06-22T08:49:13;32.10;58.64
69393;SHT31;56582;44.624;20.378;2023-06-22T08:51:39;32.16;55.88
69393;SHT31;56582;44.624;20.378;2023-06-22T08:54:04;32.14;55.82
69393;SHT31;56582;44.624;20.378;2023-06-22T08:56:30;32.34;55.49
69393;SHT31;56582;44.624;20.378;2023-06-22T08:58:55;32.45;56.45
69393;SHT31;56582;44.624;20.378;2023-06-22T09:01:21;32.60;52.92
69393;SHT31;56582;44.624;20.378;2023-06-22T09:03:47;32.53;51.95
69393;SHT31;56582;44.624;20.378;2023-06-22T09:06:22;32.67;52.96
69393;SHT31;56582;44.624;20.378;2023-06-22T09:08:48;32.71;51.52
69393;SHT31;56582;44.624;20.378;2023-06-22T09:11:14;32.94;52.43
69393;SHT31;56582;44.624;20.378;2023-06-22T09:13:39;32.89;52.32
69393;SHT31;56582;44.624;20.378;2023-06-22T09:16:05;32.98;55.46
69393;SHT31;56582;44.624;20.378;2023-06-22T09:18:30;33.02;54.01
69393;SHT31;56582;44.624;20.378;2023-06-22T09:20:56;33.15;55.25
69393;SHT31;56582;44.624;20.378;2023-06-22T09:23:21;33.06;56.83
69393;SHT31;56582;44.624;20.378;2023-06-22T09:25:47;32.79;53.18
69393;SHT31;56582;44.624;20.378;2023-06-22T09:28:14;32.81;56.49
69393;SHT31;56582;44.624;20.378;2023-06-22T09:30:39;32.96;56.17
69393;SHT31;56582;44.624;20.378;2023-06-22T09:33:05;32.71;53.97
69393;SHT31;56582;44.624;20.378;2023-06-22T09:35:30;33.02;53.36
69393;SHT31;56582;44.624;20.378;2023-06-22T09:37:55;33.15;52.21
69393;SHT31;56582;44.624;20.378;2023-06-22T09:40:21;33.13;52.61
69393;SHT31;56582;44.624;20.378;2023-06-22T09:42:46;32.74;50.19
69393;SHT31;56582;44.624;20.378;2023-06-22T09:45:12;32.96;54.41
69393;SHT31;56582;44.624;20.378;2023-06-22T09:47:37;32.96;50.28
69393;SHT31;56582;44.624;20.378;2023-06-22T09:50:03;33.11;51.53
69393;SHT31;56582;44.624;20.378;2023-06-22T09:52:28;33.25;53.47
69393;SHT31;56582;44.624;20.378;2023-06-22T09:54:54;33.39;53.01
69393;SHT31;56582;44.624;20.378;2023-06-22T09:57:19;33.25;48.84
69393;SHT31;56582;44.624;20.378;2023-06-22T09:59:45;33.30;56.16
69393;SHT31;56582;44.624;20.378;2023-06-22T10:02:10;33.30;53.37
69393;SHT31;56582;44.624;20.378;2023-06-22T10:04:36;33.32;57.39
69393;SHT31;56582;44.624;20.378;2023-06-22T10:07:02;33.18;48.35
69393;SHT31;56582;44.624;20.378;2023-06-22T10:09:27;33.22;54.65
69393;SHT31;56582;44.624;20.378;2023-06-22T10:11:53;32.67;55.52
69393;SHT31;56582;44.624;20.378;2023-06-22T10:14:19;32.89;58.39
69393;SHT31;56582;44.624;20.378;2023-06-22T10:16:44;32.88;55.72
69393;SHT31;56582;44.624;20.378;2023-06-22T10:19:10;33.02;56.93
69393;SHT31;56582;44.624;20.378;2023-06-22T10:21:35;33.15;54.71
69393;SHT31;56582;44.624;20.378;2023-06-22T10:24:01;33.16;56.51
69393;SHT31;56582;44.624;20.378;2023-06-22T10:26:32;33.26;56.86
69393;SHT31;56582;44.624;20.378;2023-06-22T10:28:57;33.33;62.66
69393;SHT31;56582;44.624;20.378;2023-06-22T10:31:23;33.53;55.13
69393;SHT31;56582;44.624;20.378;2023-06-22T10:33:48;33.42;58.34
69393;SHT31;56582;44.624;20.378;2023-06-22T10:36:14;33.32;54.55
69393;SHT31;56582;44.624;20.378;2023-06-22T10:38:40;33.50;57.26
69393;SHT31;56582;44.624;20.378;2023-06-22T10:41:05;33.47;53.02
69393;SHT31;56582;44.624;20.378;2023-06-22T10:43:31;33.37;53.12
69393;SHT31;56582;44.624;20.378;2023-06-22T10:45:56;33.50;54.44
69393;SHT31;56582;44.624;20.378;2023-06-22T10:48:22;33.42;56.06
69393;SHT31;56582;44.624;20.378;2023-06-22T10:50:47;33.49;57.46
69393;SHT31;56582;44.624;20.378;2023-06-22T10:53:13;33.33;48.27
69393;SHT31;56582;44.624;20.378;2023-06-22T10:55:38;33.45;54.99
69393;SHT31;56582;44.624;20.378;2023-06-22T10:58:03;33.56;52.73
69393;SHT31;56582;44.624;20.378;2023-06-22T11:00:29;33.86;52.09
69393;SHT31;56582;44.624;20.378;2023-06-22T11:02:54;33.97;52.87
69393;SHT31;56582;44.624;20.378;2023-06-22T11:05:20;33.90;54.69
69393;SHT31;56582;44.624;20.378;2023-06-22T11:07:45;33.70;46.20
69393;SHT31;56582;44.624;20.378;2023-06-22T11:10:12;33.88;48.98
69393;SHT31;56582;44.624;20.378;2023-06-22T11:12:37;34.12;48.75
69393;SHT31;56582;44.624;20.378;2023-06-22T11:15:03;34.17;46.92
69393;SHT31;56582;44.624;20.378;2023-06-22T11:17:29;34.19;53.41
69393;SHT31;56582;44.624;20.378;2023-06-22T11:19:54;34.15;52.08
69393;SHT31;56582;44.624;20.378;2023-06-22T11:22:20;34.09;51.15
69393;SHT31;56582;44.624;20.378;2023-06-22T11:24:45;34.24;56.07
69393;SHT31;56582;44.624;20.378;2023-06-22T11:27:11;34.19;55.73
69393;SHT31;56582;44.624;20.378;2023-06-22T11:29:36;34.05;55.43
69393;SHT31;56582;44.624;20.378;2023-06-22T11:32:01;33.98;51.97
69393;SHT31;56582;44.624;20.378;2023-06-22T11:34:27;34.08;53.75
69393;SHT31;56582;44.624;20.378;2023-06-22T11:36:53;34.15;54.28
69393;SHT31;56582;44.624;20.378;2023-06-22T11:39:18;34.14;54.62
69393;SHT31;56582;44.624;20.378;2023-06-22T11:41:44;34.29;53.65
69393;SHT31;56582;44.624;20.378;2023-06-22T11:44:09;34.25;54.06
69393;SHT31;56582;44.624;20.378;2023-06-22T11:46:35;34.00;55.40
69393;SHT31;56582;44.624;20.378;2023-06-22T11:49:01;33.71;54.50
69393;SHT31;56582;44.624;20.378;2023-06-22T11:51:27;33.73;57.06
69393;SHT31;56582;44.624;20.378;2023-06-22T11:53:53;33.49;56.27
69393;SHT31;56582;44.624;20.378;2023-06-22T11:56:19;33.81;57.24
69393;SHT31;56582;44.624;20.378;2023-06-22T11:58:44;33.91;60.07
69393;SHT31;56582;44.624;20.378;2023-06-22T12:01:09;33.96;57.78
69393;SHT31;56582;44.624;20.378;2023-06-22T12:03:35;34.04;53.51
69393;SHT31;56582;44.624;20.378;2023-06-22T12:06:00;33.66;57.42
69393;SHT31;56582;44.624;20.378;2023-06-22T12:08:26;33.84;60.04
69393;SHT31;56582;44.624;20.378;2023-06-22T12:10:51;33.84;61.02
69393;SHT31;56582;44.624;20.378;2023-06-22T12:13:19;33.97;57.44
69393;SHT31;56582;44.624;20.378;2023-06-22T12:15:44;33.97;55.17
69393;SHT31;56582;44.624;20.378;2023-06-22T12:18:10;34.08;57.60
69393;SHT31;56582;44.624;20.378;2023-06-22T12:20:36;34.17;56.70
69393;SHT31;56582;44.624;20.378;2023-06-22T12:23:01;34.12;54.98
69393;SHT31;56582;44.624;20.378;2023-06-22T12:25:27;33.91;54.19
69393;SHT31;56582;44.624;20.378;2023-06-22T12:27:52;33.90;54.25
69393;SHT31;56582;44.624;20.378;2023-06-22T12:30:19;33.97;58.13
69393;SHT31;56582;44.624;20.378;2023-06-22T12:32:44;34.00;57.56
69393;SHT31;56582;44.624;20.378;2023-06-22T12:35:09;33.94;56.55
69393;SHT31;56582;44.624;20.378;2023-06-22T12:37:40;33.94;60.24
69393;SHT31;56582;44.624;20.378;2023-06-22T12:40:06;33.84;53.37
69393;SHT31;56582;44.624;20.378;2023-06-22T12:42:32;33.88;58.54
69393;SHT31;56582;44.624;20.378;2023-06-22T12:44:57;33.91;56.35
69393;SHT31;56582;44.624;20.378;2023-06-22T12:47:23;34.01;55.57
69393;SHT31;56582;44.624;20.378;2023-06-22T12:49:48;34.32;53.49
69393;SHT31;56582;44.624;20.378;2023-06-22T12:52:14;34.35;55.33
69393;SHT31;56582;44.624;20.378;2023-06-22T12:54:39;34.28;56.17
69393;SHT31;56582;44.624;20.378;2023-06-22T12:57:05;34.28;60.93
69393;SHT31;56582;44.624;20.378;2023-06-22T12:59:30;34.14;54.41
69393;SHT31;56582;44.624;20.378;2023-06-22T13:01:56;34.22;57.07
69393;SHT31;56582;44.624;20.378;2023-06-22T13:04:21;34.01;57.15
69393;SHT31;56582;44.624;20.378;2023-06-22T13:06:47;34.02;58.43
69393;SHT31;56582;44.624;20.378;2023-06-22T13:09:14;34.01;54.68
69393;SHT31;56582;44.624;20.378;2023-06-22T13:11:40;34.01;54.76
69393;SHT31;56582;44.624;20.378;2023-06-22T13:14:05;34.12;53.51
69393;SHT31;56582;44.624;20.378;2023-06-22T13:16:31;34.21;53.30
69393;SHT31;56582;44.624;20.378;2023-06-22T13:18:56;33.98;53.69
69393;SHT31;56582;44.624;20.378;2023-06-22T13:21:22;34.05;56.96
69393;SHT31;56582;44.624;20.378;2023-06-22T13:23:47;34.24;56.90
69393;SHT31;56582;44.624;20.378;2023-06-22T13:26:13;34.21;57.53
69393;SHT31;56582;44.624;20.378;2023-06-22T13:28:38;34.32;55.62
69393;SHT31;56582;44.624;20.378;2023-06-22T13:31:04;34.32;59.74
69393;SHT31;56582;44.624;20.378;2023-06-22T13:33:29;34.36;55.82
69393;SHT31;56582;44.624;20.378;2023-06-22T13:35:54;34.38;54.99
69393;SHT31;56582;44.624;20.378;2023-06-22T13:38:20;34.27;55.67
69393;SHT31;56582;44.624;20.378;2023-06-22T13:40:45;34.24;55.32
69393;SHT31;56582;44.624;20.378;2023-06-22T13:43:13;34.38;56.83
69393;SHT31;56582;44.624;20.378;2023-06-22T13:45:38;34.22;56.39
69393;SHT31;56582;44.624;20.378;2023-06-22T13:48:04;34.32;55.01
69393;SHT31;56582;44.624;20.378;2023-06-22T13:50:29;34.39;54.83
69393;SHT31;56582;44.624;20.378;2023-06-22T13:52:55;34.49;54.07
69393;SHT31;56582;44.624;20.378;2023-06-22T13:55:21;34.55;52.27
69393;SHT31;56582;44.624;20.378;2023-06-22T13:57:48;34.73;52.90
69393;SHT31;56582;44.624;20.378;2023-06-22T14:00:14;34.83;52.40
69393;SHT31;56582;44.624;20.378;2023-06-22T14:02:39;34.55;54.91
69393;SHT31;56582;44.624;20.378;2023-06-22T14:05:06;34.72;58.00
69393;SHT31;56582;44.624;20.378;2023-06-22T14:07:31;34.59;52.71
69393;SHT31;56582;44.624;20.378;2023-06-22T14:09:57;34.62;50.10
69393;SHT31;56582;44.624;20.378;2023-06-22T14:12:23;34.49;55.73
69393;SHT31;56582;44.624;20.378;2023-06-22T14:14:48;34.52;51.14
69393;SHT31;56582;44.624;20.378;2023-06-22T14:17:14;34.67;54.31
69393;SHT31;56582;44.624;20.378;2023-06-22T14:19:39;34.62;51.80
69393;SHT31;56582;44.624;20.378;2023-06-22T14:22:05;34.70;56.15
69393;SHT31;56582;44.624;20.378;2023-06-22T14:24:30;34.60;57.54
69393;SHT31;56582;44.624;20.378;2023-06-22T14:26:56;34.44;55.77
69393;SHT31;56582;44.624;20.378;2023-06-22T14:29:25;34.28;60.26
69393;SHT31;56582;44.624;20.378;2023-06-22T14:31:51;34.19;57.87
69393;SHT31;56582;44.624;20.378;2023-06-22T14:34:16;34.32;59.03
69393;SHT31;56582;44.624;20.378;2023-06-22T14:36:42;34.35;56.40
69393;SHT31;56582;44.624;20.378;2023-06-22T14:39:08;34.28;56.60
69393;SHT31;56582;44.624;20.378;2023-06-22T14:41:34;34.24;55.51
69393;SHT31;56582;44.624;20.378;2023-06-22T14:43:59;34.35;56.71
69393;SHT31;56582;44.624;20.378;2023-06-22T14:46:25;34.29;55.13
69393;SHT31;56582;44.624;20.378;2023-06-22T14:48:50;34.31;56.15
69393;SHT31;56582;44.624;20.378;2023-06-22T14:51:16;34.32;56.97
69393;SHT31;56582;44.624;20.378;2023-06-22T14:53:43;34.32;58.77
69393;SHT31;56582;44.624;20.378;2023-06-22T14:56:08;33.94;58.97
69393;SHT31;56582;44.624;20.378;2023-06-22T14:58:34;33.96;58.15
69393;SHT31;56582;44.624;20.378;2023-06-22T15:01:03;33.80;56.18
69393;SHT31;56582;44.624;20.378;2023-06-22T15:03:34;33.61;58.71
69393;SHT31;56582;44.624;20.378;2023-06-22T15:06:01;33.64;60.94
69393;SHT31;56582;44.624;20.378;2023-06-22T15:08:26;33.46;62.42
69393;SHT31;56582;44.624;20.378;2023-06-22T15:10:52;33.32;58.53
69393;SHT31;56582;44.624;20.378;2023-06-22T15:13:18;33.37;60.05
69393;SHT31;56582;44.624;20.378;2023-06-22T15:15:45;33.42;58.44
69393;SHT31;56582;44.624;20.378;2023-06-22T15:18:12;33.34;61.43
69393;SHT31;56582;44.624;20.378;2023-06-22T15:20:37;33.32;64.08
69393;SHT31;56582;44.624;20.378;2023-06-22T15:23:03;33.29;62.56